Calgary, Canada
Current Conditions -  °F | °C
As of 4:00 AM on Wednesday 22 Oct 2014 (Local Time) from CYYC Reporting Station
Few Clouds Few Clouds  
Wind Chill: 32°   Ceiling: Unl
Heat Index: 37°   Visibility: 15mi
Dew Point: 27°   Wind: 7mph
Humidity: 65%   Direction: 190°S
Pressure: 29.77"   Gusts: NA
Location:  51.05°N, 114.06°W
Report Text: CYYC 221000Z 19006KT 15SM FEW220 03/M03 A2977 RMK CI1 CI TR SLP098
Loading
Personal Weather Stations






























Interactive Weather Map
Tropical Storm Tracking
New forecast layout! Learn more

10-Day Weather Forecast

Advertisements
Track Severe Weather on mobile